createdAt,value
2018-12-06T00:02:32.992Z,97371.65
2018-12-06T00:07:27.907Z,97370.57
2018-12-06T00:12:22.837Z,97382.53
2018-12-06T00:17:17.821Z,97372.95
2018-12-06T00:22:12.762Z,97364.05
2018-12-06T00:27:07.943Z,97326.30
2018-12-06T00:32:02.781Z,97325.28
2018-12-06T00:36:57.589Z,97328.31
2018-12-06T00:41:52.527Z,97322.73
2018-12-06T00:46:47.366Z,97338.50
2018-12-06T00:51:42.256Z,97327.45
2018-12-06T00:56:37.916Z,97353.08
2018-12-06T01:01:32.849Z,97365.36
2018-12-06T01:06:27.799Z,97367.03
2018-12-06T01:11:23.069Z,97352.23
2018-12-06T01:16:18.006Z,97333.53
2018-12-06T01:21:12.854Z,97364.43
2018-12-06T01:26:07.681Z,97438.00
2018-12-06T01:31:02.703Z,97433.95
2018-12-06T01:35:57.587Z,97424.60
2018-12-06T01:40:52.472Z,97434.73
2018-12-06T01:45:47.305Z,97394.50
2018-12-06T01:50:42.187Z,97352.66
2018-12-06T01:55:37.002Z,97339.78
2018-12-06T02:00:31.906Z,97381.44
2018-12-06T02:05:26.759Z,97346.02
2018-12-06T02:10:21.702Z,97337.05
2018-12-06T02:15:16.842Z,97331.44
2018-12-06T02:20:11.866Z,97292.27
2018-12-06T02:25:06.851Z,97292.14
2018-12-06T02:30:01.666Z,97284.79
2018-12-06T02:40:01.532Z,97279.36
2018-12-06T02:44:57.608Z,97282.39
2018-12-06T02:49:52.792Z,97255.88
2018-12-06T02:54:47.902Z,97265.14
2018-12-06T02:59:49.082Z,97284.81
2018-12-06T03:04:47.206Z,97282.54
2018-12-06T03:09:42.294Z,97276.03
2018-12-06T03:14:37.162Z,97300.08
2018-12-06T03:19:32.124Z,97355.20
2018-12-06T03:24:32.395Z,97370.67
2018-12-06T03:29:27.260Z,97364.83
2018-12-06T03:34:31.909Z,97367.70
2018-12-06T03:45:07.243Z,97356.30
2018-12-06T03:50:02.161Z,97365.43
2018-12-06T03:54:57.069Z,97362.21
2018-12-06T03:59:51.956Z,97361.38
2018-12-06T04:04:46.774Z,97360.73
2018-12-06T04:09:41.569Z,97348.55
2018-12-06T04:14:36.437Z,97361.88
2018-12-06T04:19:31.245Z,97363.04
2018-12-06T04:24:26.120Z,97368.69
2018-12-06T04:29:20.912Z,97374.36
2018-12-06T04:34:15.834Z,97365.70
2018-12-06T04:39:10.808Z,97355.22
2018-12-06T04:44:05.751Z,97361.65
2018-12-06T04:49:00.577Z,97358.95
2018-12-06T04:53:55.358Z,97357.27
2018-12-06T04:58:50.298Z,97358.58
2018-12-06T05:03:45.067Z,97355.41
2018-12-06T05:08:39.888Z,97354.89
2018-12-06T05:13:34.711Z,97357.31
2018-12-06T05:18:29.509Z,97358.62
2018-12-06T05:23:24.263Z,97356.39
2018-12-06T05:28:19.237Z,97355.40
2018-12-06T05:33:14.147Z,97360.61
2018-12-06T05:38:08.961Z,97363.13
2018-12-06T05:43:03.816Z,97366.20
2018-12-06T05:47:58.768Z,97373.40
2018-12-06T05:52:53.564Z,97374.38
2018-12-06T05:57:48.415Z,97382.56
2018-12-06T06:02:44.974Z,97390.30
2018-12-06T06:07:39.958Z,97383.12
2018-12-06T06:12:34.846Z,97380.87
2018-12-06T06:17:29.853Z,97372.14
2018-12-06T06:22:24.748Z,97381.31
2018-12-06T06:27:19.592Z,97377.83
2018-12-06T06:32:14.391Z,97388.25
2018-12-06T06:37:09.314Z,97403.75
2018-12-06T06:42:04.300Z,97407.28
2018-12-06T06:46:59.071Z,97414.45
2018-12-06T06:51:53.961Z,97422.67
2018-12-06T06:56:48.804Z,97423.58
2018-12-06T07:01:44.193Z,97424.58
2018-12-06T07:06:39.152Z,97421.57
2018-12-06T07:11:34.019Z,97427.38
2018-12-06T07:16:28.930Z,97436.95
2018-12-06T07:21:23.912Z,97441.75
2018-12-06T07:26:18.890Z,97442.52
2018-12-06T07:31:13.840Z,97450.02
2018-12-06T07:36:08.715Z,97452.75
2018-12-06T07:41:03.705Z,97459.96
2018-12-06T07:46:03.650Z,97469.22
2018-12-06T07:50:58.492Z,97485.79
2018-12-06T07:55:53.355Z,97490.62
2018-12-06T08:00:48.286Z,97501.88
2018-12-06T08:05:43.305Z,97512.32
2018-12-06T08:10:38.193Z,97521.02
2018-12-06T08:15:33.170Z,97534.42
2018-12-06T08:20:28.070Z,97539.15
2018-12-06T08:25:22.900Z,97550.68
2018-12-06T08:30:17.698Z,97556.12
2018-12-06T08:35:12.651Z,97569.87
2018-12-06T08:40:08.904Z,97578.22
2018-12-06T08:45:03.963Z,97581.16
2018-12-06T08:49:58.806Z,97576.74
2018-12-06T08:54:53.685Z,97571.78
2018-12-06T08:59:48.538Z,97565.34
2018-12-06T09:04:43.337Z,97572.39
2018-12-06T09:09:38.132Z,97578.69
2018-12-06T09:14:33.033Z,97575.84
2018-12-06T09:19:27.834Z,97587.44
2018-12-06T09:24:22.713Z,97588.38
2018-12-06T09:29:17.665Z,97605.13
2018-12-06T09:34:12.643Z,97604.86
2018-12-06T09:39:10.802Z,97584.43
2018-12-06T09:44:05.807Z,97599.76
2018-12-06T09:49:00.694Z,97594.98
2018-12-06T09:53:55.617Z,97604.71
2018-12-06T09:58:50.389Z,97606.45
2018-12-06T10:03:45.346Z,97605.45
2018-12-06T10:08:40.174Z,97608.34
2018-12-06T10:13:34.936Z,97615.92
2018-12-06T10:18:29.703Z,97623.77
2018-12-06T10:23:24.506Z,97608.08
2018-12-06T10:28:19.232Z,97613.20
2018-12-06T10:33:14.037Z,97611.93
2018-12-06T10:38:08.891Z,97618.21
2018-12-06T10:43:03.822Z,97618.85
2018-12-06T10:47:58.722Z,97607.81
2018-12-06T10:52:53.472Z,97616.60
2018-12-06T10:57:48.438Z,97610.57
2018-12-06T11:02:49.254Z,97600.11
2018-12-06T11:07:44.112Z,97593.49
2018-12-06T11:12:39.040Z,97587.49
2018-12-06T11:17:35.484Z,97580.64
2018-12-06T11:22:30.553Z,97583.78
2018-12-06T11:32:47.433Z,97563.42
2018-12-06T11:42:47.773Z,97563.63
2018-12-06T11:47:42.557Z,97565.72
2018-12-06T11:52:37.389Z,97564.98
2018-12-06T11:57:34.269Z,97570.89
2018-12-06T12:12:46.269Z,97591.33
2018-12-06T12:17:42.229Z,97588.78
2018-12-06T12:22:37.820Z,97580.90
2018-12-06T12:27:33.004Z,97591.72
2018-12-06T12:32:35.405Z,97594.89
2018-12-06T12:37:36.846Z,97577.66
2018-12-06T12:42:31.759Z,97595.03
2018-12-06T12:47:26.657Z,97592.26
2018-12-06T12:52:24.247Z,97594.22
2018-12-06T12:57:19.410Z,97586.39
2018-12-06T13:02:15.028Z,97582.10
2018-12-06T13:07:13.562Z,97587.71
2018-12-06T13:12:17.385Z,97599.91
2018-12-06T13:22:38.858Z,97583.09
2018-12-06T13:27:48.045Z,97587.05
2018-12-06T13:32:48.427Z,97579.38
2018-12-06T13:37:49.157Z,97575.70
2018-12-06T13:42:44.134Z,97584.03
2018-12-06T13:47:39.205Z,97577.66
2018-12-06T13:52:34.313Z,97582.91
2018-12-06T13:57:39.001Z,97579.84
2018-12-06T14:02:36.966Z,97575.91
2018-12-06T14:07:38.098Z,97582.58
2018-12-06T14:12:36.359Z,97597.39
2018-12-06T14:17:34.343Z,97598.80
2018-12-06T14:22:30.296Z,97601.69
2018-12-06T14:27:25.358Z,97597.75
2018-12-06T14:32:20.455Z,97598.05
2018-12-06T14:37:15.537Z,97598.74
2018-12-06T14:42:10.452Z,97602.57
2018-12-06T14:47:05.718Z,97611.85
2018-12-06T14:52:01.669Z,97615.63
2018-12-06T14:56:56.591Z,97614.50
2018-12-06T15:01:51.663Z,97612.06
2018-12-06T15:06:46.524Z,97614.05
2018-12-06T15:11:41.529Z,97618.78
2018-12-06T15:16:36.695Z,97619.86
2018-12-06T15:21:31.701Z,97624.17
2018-12-06T15:26:26.667Z,97630.72
2018-12-06T15:31:21.594Z,97633.33
2018-12-06T15:36:16.643Z,97638.93
2018-12-06T15:41:11.518Z,97645.13
2018-12-06T15:46:06.444Z,97648.58
2018-12-06T15:51:01.262Z,97652.69
2018-12-06T15:55:56.492Z,97652.42
2018-12-06T16:00:51.515Z,97641.28
2018-12-06T16:05:46.380Z,97643.42
2018-12-06T16:10:44.978Z,97656.72
2018-12-06T16:15:39.950Z,97656.05
2018-12-06T16:20:34.984Z,97656.80
2018-12-06T16:25:35.125Z,97654.85
2018-12-06T16:30:30.030Z,97655.70
2018-12-06T16:35:25.335Z,97661.57
2018-12-06T16:40:20.246Z,97663.89
2018-12-06T16:45:15.163Z,97668.66
2018-12-06T16:50:14.209Z,97666.51
2018-12-06T16:55:16.039Z,97671.64
2018-12-06T17:00:16.303Z,97676.87
2018-12-06T17:05:16.748Z,97664.98
2018-12-06T17:10:16.154Z,97672.16
2018-12-06T17:15:14.056Z,97675.16
2018-12-06T17:20:11.110Z,97686.40
2018-12-06T17:25:09.803Z,97692.67
2018-12-06T17:30:06.214Z,97693.62
2018-12-06T17:35:02.939Z,97695.98
2018-12-06T17:39:59.446Z,97699.70
2018-12-06T17:44:54.822Z,97697.34
2018-12-06T17:49:53.204Z,97690.22
2018-12-06T17:54:56.854Z,97685.45
2018-12-06T18:00:02.557Z,97680.69
2018-12-06T18:05:01.872Z,97689.31
2018-12-06T18:10:05.265Z,97685.81
2018-12-06T18:15:02.779Z,97687.36
2018-12-06T18:20:06.366Z,97704.23
2018-12-06T18:25:14.010Z,97708.41
2018-12-06T18:30:10.105Z,97707.48
2018-12-06T18:35:05.582Z,97714.42
2018-12-06T18:40:00.793Z,97721.09
2018-12-06T18:44:57.243Z,97719.59
2018-12-06T18:55:17.359Z,97725.62
2018-12-06T19:00:13.733Z,97733.38
2018-12-06T19:05:09.230Z,97726.48
2018-12-06T19:10:05.221Z,97723.72
2018-12-06T19:15:02.071Z,97725.49
2018-12-06T19:20:06.053Z,97721.20
2018-12-06T19:37:37.380Z,97734.17
2018-12-06T19:42:38.666Z,97724.28
2018-12-06T19:47:36.716Z,97725.12
2018-12-06T19:52:34.008Z,97725.06
2018-12-06T19:57:30.676Z,97730.51
2018-12-06T20:02:26.023Z,97727.05
2018-12-06T20:21:13.062Z,97710.68
2018-12-06T20:26:11.153Z,97705.64
2018-12-06T20:31:09.078Z,97693.52
2018-12-06T20:36:08.416Z,97698.97
2018-12-06T20:41:05.489Z,97703.63
2018-12-06T20:46:08.255Z,97693.27
2018-12-06T20:51:07.764Z,97690.44
2018-12-06T20:56:04.895Z,97690.81
2018-12-06T21:01:02.969Z,97679.14
2018-12-06T21:11:25.348Z,97681.98
2018-12-06T21:16:20.536Z,97675.14
2018-12-06T21:21:15.412Z,97668.95
2018-12-06T21:26:10.598Z,97656.52
2018-12-06T21:31:06.782Z,97662.46
2018-12-06T21:36:02.027Z,97664.42
2018-12-06T21:40:57.068Z,97668.50
2018-12-06T21:45:53.280Z,97664.95
2018-12-06T21:50:48.491Z,97666.50
2018-12-06T21:55:43.551Z,97664.88
2018-12-06T22:00:38.566Z,97662.54
2018-12-06T22:05:33.363Z,97654.60
2018-12-06T22:10:28.176Z,97655.16
2018-12-06T22:15:23.093Z,97665.78
2018-12-06T22:20:17.975Z,97670.76
2018-12-06T22:25:13.022Z,97668.14
2018-12-06T22:30:09.055Z,97671.11
2018-12-06T22:35:05.285Z,97679.32
2018-12-06T22:40:14.091Z,97668.95
2018-12-06T22:45:43.380Z,97665.20
2018-12-06T23:02:25.917Z,97657.80
2018-12-06T23:21:09.933Z,97652.36
2018-12-06T23:48:23.664Z,97642.39
2018-12-06T23:53:48.581Z,97649.61
2018-12-06T23:59:06.692Z,97643.70
